createdAt,value
2023-01-03T00:04:53.993Z,57.90
2023-01-03T00:09:56.954Z,57.90
2023-01-03T00:15:01.215Z,57.80
2023-01-03T00:20:06.555Z,57.90
2023-01-03T00:25:10.080Z,57.90
2023-01-03T00:30:13.665Z,57.80
2023-01-03T00:35:18.063Z,57.90
2023-01-03T00:40:21.033Z,58.00
2023-01-03T00:45:25.681Z,57.80
2023-01-03T00:50:30.724Z,57.90
2023-01-03T00:55:36.345Z,58.00
2023-01-03T01:00:39.569Z,57.90
2023-01-03T01:05:43.847Z,57.80
2023-01-03T01:11:01.847Z,57.90
2023-01-03T01:16:06.376Z,57.70
2023-01-03T01:21:12.913Z,57.70
2023-01-03T01:26:17.342Z,57.70
2023-01-03T01:31:22.443Z,57.50
2023-01-03T01:36:29.581Z,57.60
2023-01-03T01:41:51.673Z,57.60
2023-01-03T01:46:54.611Z,57.50
2023-01-03T01:51:59.101Z,57.50
2023-01-03T01:57:02.078Z,57.50
2023-01-03T02:02:05.108Z,57.30
2023-01-03T02:07:09.763Z,57.50
2023-01-03T02:12:39.606Z,57.30
2023-01-03T02:17:50.926Z,57.40
2023-01-03T02:23:27.916Z,57.50
2023-01-03T02:29:03.281Z,57.60
2023-01-03T02:34:21.322Z,57.60
2023-01-03T02:39:28.574Z,57.50
2023-01-03T02:44:35.426Z,57.50
2023-01-03T02:49:44.001Z,57.40
2023-01-03T02:54:51.587Z,57.50
2023-01-03T02:59:57.000Z,57.40
2023-01-03T03:05:05.356Z,57.30
2023-01-03T03:10:27.882Z,57.40
2023-01-03T03:15:34.851Z,57.30
2023-01-03T03:20:56.570Z,57.30
2023-01-03T03:26:03.847Z,57.30
2023-01-03T03:31:10.247Z,57.20
2023-01-03T03:36:20.478Z,57.20
2023-01-03T03:41:51.956Z,57.10
2023-01-03T03:47:04.203Z,57.20
2023-01-03T03:52:13.976Z,57.20
2023-01-03T03:57:21.907Z,57.20
2023-01-03T04:02:27.098Z,57.20
2023-01-03T04:07:31.431Z,57.10
2023-01-03T04:12:34.320Z,57.10
2023-01-03T04:17:37.231Z,57.00
2023-01-03T04:22:41.762Z,57.10
2023-01-03T04:27:44.730Z,57.00
2023-01-03T04:32:47.618Z,57.10
2023-01-03T04:37:51.860Z,57.10
2023-01-03T04:43:12.799Z,57.00
2023-01-03T04:48:15.761Z,56.90
2023-01-03T04:53:20.063Z,56.90
2023-01-03T04:58:23.024Z,57.00
2023-01-03T05:03:28.090Z,56.90
2023-01-03T05:08:32.556Z,56.90
2023-01-03T05:13:35.558Z,57.00
2023-01-03T05:18:39.217Z,57.00
2023-01-03T05:24:01.013Z,57.00
2023-01-03T05:29:04.015Z,57.00
2023-01-03T05:34:06.911Z,57.00
2023-01-03T05:39:11.360Z,57.00
2023-01-03T05:44:14.552Z,57.00
2023-01-03T05:49:17.855Z,57.00
2023-01-03T05:54:22.490Z,57.00
2023-01-03T05:59:26.928Z,57.00
2023-01-03T06:04:29.973Z,56.90
2023-01-03T06:09:34.308Z,56.90
2023-01-03T06:14:37.206Z,57.60
2023-01-03T06:19:40.147Z,57.60
2023-01-03T06:24:44.834Z,56.80
2023-01-03T06:29:47.824Z,56.70
2023-01-03T06:34:50.786Z,56.80
2023-01-03T06:39:55.107Z,56.90
2023-01-03T06:45:15.479Z,56.80
2023-01-03T06:50:36.148Z,56.90
2023-01-03T06:55:40.777Z,56.90
2023-01-03T07:00:45.353Z,56.90
2023-01-03T07:05:48.281Z,57.00
2023-01-03T07:10:52.546Z,57.00
2023-01-03T07:15:55.563Z,57.00
2023-01-03T07:20:58.569Z,57.10
2023-01-03T07:26:02.948Z,57.10
2023-01-03T07:31:07.556Z,57.30
2023-01-03T07:36:12.638Z,57.20
2023-01-03T07:41:17.870Z,57.20
2023-01-03T07:46:22.719Z,57.30
2023-01-03T07:51:25.715Z,57.30
2023-01-03T07:56:30.110Z,57.50
2023-01-03T08:01:34.756Z,57.50
2023-01-03T08:06:37.749Z,57.50
2023-01-03T08:11:59.520Z,57.60
2023-01-03T08:17:02.475Z,57.70
2023-01-03T08:22:05.378Z,57.70
2023-01-03T08:27:09.646Z,57.90
2023-01-03T08:32:12.659Z,58.00
2023-01-03T08:37:17.814Z,57.90
2023-01-03T08:42:23.458Z,58.00
2023-01-03T08:47:26.500Z,58.10
2023-01-03T08:52:34.773Z,58.10
2023-01-03T08:57:40.350Z,58.10
2023-01-03T09:02:43.536Z,58.10
2023-01-03T09:07:46.701Z,58.10
2023-01-03T09:12:51.736Z,58.00
2023-01-03T09:17:54.651Z,58.00
2023-01-03T09:22:57.576Z,57.90
2023-01-03T09:28:01.869Z,58.00
2023-01-03T09:33:04.966Z,58.20
2023-01-03T09:38:08.260Z,58.20
2023-01-03T09:43:23.026Z,58.20
2023-01-03T09:48:31.481Z,58.20
2023-01-03T09:53:58.419Z,58.30
2023-01-03T09:59:29.639Z,58.10
2023-01-03T10:05:09.333Z,58.40
2023-01-03T10:10:18.597Z,58.40
2023-01-03T10:15:31.079Z,58.20
2023-01-03T10:20:45.753Z,58.30
2023-01-03T10:25:49.270Z,58.30
2023-01-03T10:31:08.398Z,58.20
2023-01-03T10:36:14.417Z,58.30
2023-01-03T10:41:20.954Z,58.20
2023-01-03T10:46:27.966Z,58.10
2023-01-03T10:51:40.319Z,57.90
2023-01-03T10:56:46.504Z,57.60
2023-01-03T11:02:15.117Z,57.70
2023-01-03T11:07:19.097Z,57.70
2023-01-03T11:12:30.098Z,57.60
2023-01-03T11:17:35.133Z,57.60
2023-01-03T11:22:43.093Z,57.60
2023-01-03T11:28:05.415Z,57.50
2023-01-03T11:33:31.350Z,57.50
2023-01-03T11:38:51.091Z,57.60
2023-01-03T11:44:22.144Z,57.60
2023-01-03T11:49:34.569Z,57.80
2023-01-03T11:55:04.148Z,57.70
2023-01-03T12:00:13.018Z,58.20
2023-01-03T12:05:41.138Z,57.60
2023-01-03T12:10:49.092Z,57.50
2023-01-03T12:15:59.041Z,57.50
2023-01-03T12:21:08.620Z,57.60
2023-01-03T12:26:14.604Z,57.60
2023-01-03T12:31:31.251Z,57.20
2023-01-03T12:36:41.864Z,57.10
2023-01-03T12:41:48.286Z,56.90
2023-01-03T12:46:54.203Z,56.90
2023-01-03T12:51:59.388Z,56.70
2023-01-03T12:57:17.145Z,56.40
2023-01-03T13:02:29.223Z,56.30
2023-01-03T13:07:35.114Z,56.30
2023-01-03T13:12:42.358Z,56.30
2023-01-03T13:17:46.967Z,56.50
2023-01-03T13:22:53.248Z,56.50
2023-01-03T13:27:58.432Z,56.60
2023-01-03T13:33:18.451Z,56.70
2023-01-03T13:38:28.953Z,56.60
2023-01-03T13:43:39.707Z,56.80
2023-01-03T13:48:54.863Z,56.70
2023-01-03T13:54:02.650Z,56.70
2023-01-03T13:59:19.530Z,56.80
2023-01-03T14:04:49.207Z,56.80
2023-01-03T14:10:21.927Z,56.80
2023-01-03T14:15:27.153Z,56.70
2023-01-03T14:20:35.051Z,56.60
2023-01-03T14:25:41.491Z,56.70
2023-01-03T14:30:45.361Z,56.70
2023-01-03T14:35:48.820Z,56.80
2023-01-03T14:40:54.409Z,56.80
2023-01-03T14:46:01.283Z,56.70
2023-01-03T14:51:06.270Z,56.80
2023-01-03T14:56:12.513Z,57.00
2023-01-03T15:01:16.928Z,57.00
2023-01-03T15:06:23.493Z,57.00
2023-01-03T15:11:33.992Z,57.00
2023-01-03T15:16:39.240Z,57.10
2023-01-03T15:21:43.507Z,56.90
2023-01-03T15:26:49.690Z,56.90
2023-01-03T15:31:57.694Z,56.90
2023-01-03T15:37:02.825Z,57.00
2023-01-03T15:42:51.863Z,56.90
2023-01-03T15:47:59.372Z,56.80
2023-01-03T15:53:02.379Z,56.80
2023-01-03T15:58:06.807Z,56.80
2023-01-03T16:03:17.650Z,56.80
2023-01-03T16:08:27.073Z,57.00
2023-01-03T16:13:36.262Z,57.10
2023-01-03T16:18:44.585Z,57.20
2023-01-03T16:23:47.573Z,57.20
2023-01-03T16:28:51.852Z,57.20
2023-01-03T16:33:54.865Z,57.20
2023-01-03T16:38:58.344Z,57.20
2023-01-03T16:44:02.636Z,57.30
2023-01-03T16:49:06.863Z,57.50
2023-01-03T16:54:09.809Z,57.50
2023-01-03T16:59:15.811Z,57.40
2023-01-03T17:04:18.765Z,57.50
2023-01-03T17:09:27.704Z,57.40
2023-01-03T17:14:36.110Z,57.40
2023-01-03T17:25:02.083Z,57.30
2023-01-03T17:30:09.163Z,58.00
2023-01-03T17:35:13.904Z,57.20
2023-01-03T17:40:20.321Z,57.20
2023-01-03T17:45:42.932Z,57.90
2023-01-03T17:50:46.021Z,57.00
2023-01-03T17:55:50.157Z,57.10
2023-01-03T18:00:54.433Z,57.10
2023-01-03T18:05:57.589Z,57.20
2023-01-03T18:11:00.778Z,57.20
2023-01-03T18:16:05.801Z,57.20
2023-01-03T18:21:21.232Z,57.30
2023-01-03T18:26:28.703Z,57.50
2023-01-03T18:31:33.184Z,57.40
2023-01-03T18:36:40.987Z,57.30
2023-01-03T18:41:45.843Z,57.20
2023-01-03T18:46:50.613Z,57.20
2023-01-03T18:51:54.500Z,57.20
2023-01-03T18:56:57.520Z,57.20
2023-01-03T19:02:01.913Z,57.20
2023-01-03T19:07:05.058Z,57.30
2023-01-03T19:12:10.755Z,57.40
2023-01-03T19:17:17.408Z,57.40
2023-01-03T19:22:26.734Z,57.50
2023-01-03T19:27:36.057Z,57.50
2023-01-03T19:32:40.928Z,57.50
2023-01-03T19:37:43.885Z,57.40
2023-01-03T19:42:52.552Z,57.50
2023-01-03T19:47:57.586Z,57.60
2023-01-03T19:53:02.025Z,57.60
2023-01-03T19:58:09.452Z,57.70
2023-01-03T20:03:24.055Z,57.70
2023-01-03T20:08:27.276Z,57.80
2023-01-03T20:13:30.195Z,57.70
2023-01-03T20:18:36.438Z,57.80
2023-01-03T20:23:43.357Z,57.90
2023-01-03T20:28:46.299Z,57.90
2023-01-03T20:33:52.073Z,57.90
2023-01-03T20:38:56.461Z,57.90
2023-01-03T20:43:59.558Z,57.80
2023-01-03T20:49:04.741Z,57.90
2023-01-03T20:54:07.690Z,58.00
2023-01-03T20:59:16.406Z,57.90
2023-01-03T21:04:20.664Z,57.90
2023-01-03T21:09:23.582Z,57.90
2023-01-03T21:14:26.452Z,57.70
2023-01-03T21:19:30.696Z,57.80
2023-01-03T21:24:38.667Z,57.80
2023-01-03T21:29:42.114Z,57.80
2023-01-03T21:34:46.437Z,57.80
2023-01-03T21:39:49.547Z,57.80
2023-01-03T21:44:52.572Z,57.80
2023-01-03T21:49:57.076Z,57.90
2023-01-03T21:54:59.968Z,58.00
2023-01-03T22:00:02.942Z,58.00
2023-01-03T22:05:09.317Z,58.20
2023-01-03T22:10:18.946Z,58.00
2023-01-03T22:15:22.490Z,58.10
2023-01-03T22:20:30.897Z,58.00
2023-01-03T22:25:36.472Z,58.10
2023-01-03T22:30:40.130Z,58.10
2023-01-03T22:35:44.407Z,58.20
2023-01-03T22:40:47.321Z,58.20
2023-01-03T22:45:50.320Z,58.20
2023-01-03T22:50:54.633Z,58.20
2023-01-03T22:55:57.544Z,58.40
2023-01-03T23:01:06.833Z,58.30
2023-01-03T23:06:13.998Z,58.30
2023-01-03T23:11:36.176Z,58.40
2023-01-03T23:16:40.010Z,58.40
2023-01-03T23:21:46.160Z,58.50
2023-01-03T23:26:49.207Z,58.50
2023-01-03T23:31:52.913Z,58.60
2023-01-03T23:36:57.214Z,58.70
2023-01-03T23:42:00.139Z,58.80
2023-01-03T23:47:09.281Z,58.80
2023-01-03T23:52:15.851Z,59.00
2023-01-03T23:57:18.783Z,59.00
